createdAt,value
2023-04-08T00:00:34.025Z,15.32
2023-04-08T00:03:01.959Z,12.77
2023-04-08T00:05:28.875Z,17.23
2023-04-08T00:07:56.440Z,18.95
2023-04-08T00:10:23.260Z,16.33
2023-04-08T00:12:49.992Z,14.23
2023-04-08T00:15:16.807Z,14.02
2023-04-08T00:17:43.590Z,13.55
2023-04-08T00:20:10.837Z,12.27
2023-04-08T00:22:37.641Z,17.33
2023-04-08T00:25:06.908Z,13.25
2023-04-08T00:27:33.824Z,14.68
2023-04-08T00:30:01.685Z,15.98
2023-04-08T00:32:29.202Z,13.40
2023-04-08T00:34:56.440Z,15.07
2023-04-08T00:37:25.026Z,16.13
2023-04-08T00:39:53.919Z,15.38
2023-04-08T00:42:23.382Z,14.75
2023-04-08T00:47:17.417Z,16.98
2023-04-08T00:49:45.039Z,15.68
2023-04-08T00:52:11.876Z,14.75
2023-04-08T00:54:38.894Z,13.48
2023-04-08T00:57:06.814Z,12.63
2023-04-08T00:59:34.424Z,13.15
2023-04-08T01:02:15.021Z,13.38
2023-04-08T01:05:02.912Z,13.73
2023-04-08T01:07:38.459Z,13.65
2023-04-08T01:10:17.453Z,14.85
2023-04-08T01:12:49.645Z,14.77
2023-04-08T01:15:16.517Z,12.02
2023-04-08T01:17:43.934Z,12.05
2023-04-08T01:20:11.796Z,14.32
2023-04-08T01:22:46.872Z,12.40
2023-04-08T01:25:22.316Z,12.27
2023-04-08T01:27:50.017Z,13.50
2023-04-08T01:30:19.273Z,15.07
2023-04-08T01:32:47.395Z,12.23
2023-04-08T01:35:16.651Z,15.18
2023-04-08T01:37:43.669Z,15.67
2023-04-08T01:40:11.317Z,15.45
2023-04-08T01:42:38.477Z,14.05
2023-04-08T01:45:06.770Z,13.50
2023-04-08T01:47:34.576Z,14.25
2023-04-08T01:50:01.603Z,14.30
2023-04-08T01:52:29.258Z,13.13
2023-04-08T01:54:56.388Z,14.65
2023-04-08T01:57:26.718Z,15.32
2023-04-08T01:59:58.008Z,18.88
2023-04-08T02:02:27.158Z,12.73
2023-04-08T02:04:55.047Z,14.55
2023-04-08T02:07:21.876Z,14.25
2023-04-08T02:09:49.348Z,10.13
2023-04-08T02:12:16.194Z,13.40
2023-04-08T02:14:43.098Z,13.45
2023-04-08T02:17:13.648Z,11.68
2023-04-08T02:19:47.188Z,12.05
2023-04-08T02:22:28.241Z,10.88
2023-04-08T02:24:55.569Z,12.90
2023-04-08T02:27:24.309Z,11.82
2023-04-08T02:29:51.692Z,12.30
2023-04-08T02:32:18.493Z,12.13
2023-04-08T02:34:46.200Z,11.52
2023-04-08T02:37:13.075Z,12.15
2023-04-08T02:39:39.885Z,10.73
2023-04-08T02:42:06.831Z,12.38
2023-04-08T02:44:33.784Z,11.25
2023-04-08T02:49:29.888Z,12.38
2023-04-08T02:51:57.485Z,12.40
2023-04-08T02:54:25.251Z,9.80
2023-04-08T02:56:52.012Z,11.60
2023-04-08T02:59:18.860Z,11.93
2023-04-08T03:01:45.725Z,11.38
2023-04-08T03:04:12.615Z,13.05
2023-04-08T03:06:39.398Z,11.70
2023-04-08T03:09:07.235Z,11.15
2023-04-08T03:11:34.277Z,11.30
2023-04-08T03:14:01.262Z,10.85
2023-04-08T03:16:28.099Z,11.63
2023-04-08T03:18:54.912Z,10.23
2023-04-08T03:21:21.701Z,14.20
2023-04-08T03:23:49.233Z,12.15
2023-04-08T03:26:16.008Z,10.32
2023-04-08T03:28:42.719Z,10.48
2023-04-08T03:31:10.745Z,11.32
2023-04-08T03:33:37.509Z,11.40
2023-04-08T03:36:04.584Z,13.57
2023-04-08T03:38:32.193Z,10.48
2023-04-08T03:40:58.924Z,13.00
2023-04-08T03:43:26.132Z,13.18
2023-04-08T03:45:52.884Z,14.18
2023-04-08T03:48:19.627Z,10.48
2023-04-08T03:50:46.370Z,11.43
2023-04-08T03:53:13.176Z,12.30
2023-04-08T03:55:40.074Z,9.75
2023-04-08T03:58:06.839Z,10.93
2023-04-08T04:00:35.409Z,11.40
2023-04-08T04:03:02.281Z,10.98
2023-04-08T04:05:29.589Z,10.85
2023-04-08T04:07:58.395Z,10.88
2023-04-08T04:10:25.370Z,11.50
2023-04-08T04:12:52.104Z,13.18
2023-04-08T04:15:18.899Z,11.40
2023-04-08T04:17:50.809Z,12.85
2023-04-08T04:20:18.223Z,12.23
2023-04-08T04:22:45.211Z,13.00
2023-04-08T04:25:11.965Z,12.77
2023-04-08T04:27:38.725Z,13.07
2023-04-08T04:30:07.181Z,11.77
2023-04-08T04:32:33.942Z,13.88
2023-04-08T04:35:01.028Z,16.92
2023-04-08T04:37:28.298Z,15.95
2023-04-08T04:39:55.032Z,12.80
2023-04-08T04:42:21.769Z,13.50
2023-04-08T04:44:49.391Z,12.00
2023-04-08T04:47:16.661Z,13.32
2023-04-08T04:49:43.591Z,11.23
2023-04-08T04:52:11.464Z,10.57
2023-04-08T04:54:38.216Z,13.32
2023-04-08T04:57:04.969Z,11.70
2023-04-08T04:59:31.985Z,12.10
2023-04-08T05:01:58.989Z,14.48
2023-04-08T05:04:26.286Z,12.02
2023-04-08T05:06:53.035Z,12.02
2023-04-08T05:09:19.780Z,14.15
2023-04-08T05:11:47.579Z,11.63
2023-04-08T05:14:14.378Z,12.73
2023-04-08T05:16:41.651Z,12.63
2023-04-08T05:19:08.529Z,12.10
2023-04-08T05:21:36.413Z,15.45
2023-04-08T05:24:03.342Z,13.23
2023-04-08T05:26:30.902Z,11.27
2023-04-08T05:28:57.689Z,11.02
2023-04-08T05:31:24.570Z,12.55
2023-04-08T05:33:51.399Z,13.60
2023-04-08T05:36:19.037Z,11.93
2023-04-08T05:38:46.155Z,12.48
2023-04-08T05:41:13.001Z,12.48
2023-04-08T05:43:40.688Z,10.80
2023-04-08T05:46:08.235Z,13.98
2023-04-08T05:48:35.470Z,13.48
2023-04-08T05:51:02.730Z,13.25
2023-04-08T05:53:29.665Z,11.73
2023-04-08T05:55:56.389Z,11.63
2023-04-08T05:58:24.082Z,11.75
2023-04-08T06:00:50.989Z,11.68
2023-04-08T06:03:20.466Z,12.40
2023-04-08T06:05:48.292Z,12.60
2023-04-08T06:08:15.364Z,11.05
2023-04-08T06:10:49.843Z,11.13
2023-04-08T06:13:16.973Z,9.82
2023-04-08T06:15:43.802Z,10.95
2023-04-08T06:18:10.519Z,10.02
2023-04-08T06:20:38.145Z,10.13
2023-04-08T06:23:04.899Z,9.95
2023-04-08T06:25:31.651Z,9.27
2023-04-08T06:27:58.463Z,10.30
2023-04-08T06:30:25.444Z,9.45
2023-04-08T06:32:52.267Z,10.48
2023-04-08T06:35:20.005Z,9.30
2023-04-08T06:37:46.743Z,9.88
2023-04-08T06:40:13.684Z,12.02
2023-04-08T06:42:43.371Z,14.63
2023-04-08T06:45:33.503Z,9.50
2023-04-08T06:48:00.698Z,10.02
2023-04-08T06:50:27.749Z,10.77
2023-04-08T06:52:55.795Z,10.88
2023-04-08T06:55:22.747Z,9.25
2023-04-08T06:57:49.517Z,13.13
2023-04-08T07:00:16.473Z,11.88
2023-04-08T07:02:43.456Z,13.93
2023-04-08T07:05:10.339Z,13.73
2023-04-08T07:07:37.480Z,12.55
2023-04-08T07:10:08.785Z,12.98
2023-04-08T07:12:37.381Z,9.85
2023-04-08T07:15:04.710Z,11.60
2023-04-08T07:17:32.463Z,11.40
2023-04-08T07:19:59.814Z,12.77
2023-04-08T07:22:26.790Z,10.15
2023-04-08T07:24:53.602Z,10.07
2023-04-08T07:27:21.678Z,10.15
2023-04-08T07:29:53.945Z,10.38
2023-04-08T07:32:21.227Z,9.00
2023-04-08T07:34:48.229Z,11.20
2023-04-08T07:37:15.451Z,8.27
2023-04-08T07:39:42.290Z,10.45
2023-04-08T07:42:09.244Z,9.13
2023-04-08T07:44:38.259Z,7.55
2023-04-08T07:47:05.083Z,7.72
2023-04-08T07:49:31.936Z,9.55
2023-04-08T07:51:59.274Z,9.15
2023-04-08T07:54:26.100Z,7.57
2023-04-08T07:56:53.004Z,7.95
2023-04-08T07:59:20.030Z,9.32
2023-04-08T08:01:47.026Z,9.45
2023-04-08T08:04:14.424Z,8.70
2023-04-08T08:06:41.506Z,6.97
2023-04-08T08:09:08.345Z,8.52
2023-04-08T08:11:35.271Z,8.50
2023-04-08T08:14:02.253Z,7.72
2023-04-08T08:16:29.909Z,8.25
2023-04-08T08:18:56.950Z,6.97
2023-04-08T08:21:24.310Z,7.32
2023-04-08T08:23:52.837Z,10.13
2023-04-08T08:26:19.796Z,7.65
2023-04-08T08:28:46.805Z,8.95
2023-04-08T08:31:13.936Z,8.65
2023-04-08T08:33:41.065Z,9.65
2023-04-08T08:36:08.103Z,8.32
2023-04-08T08:38:35.170Z,8.35
2023-04-08T08:41:04.361Z,9.02
2023-04-08T08:43:34.816Z,9.48
2023-04-08T08:46:01.977Z,8.60
2023-04-08T08:48:29.040Z,8.90
2023-04-08T08:50:56.419Z,7.72
2023-04-08T08:53:29.750Z,8.25
2023-04-08T08:56:13.647Z,11.95
2023-04-08T08:58:44.283Z,13.10
2023-04-08T09:01:34.396Z,9.43
2023-04-08T09:04:09.831Z,10.60
2023-04-08T09:06:37.672Z,10.38
2023-04-08T09:09:10.794Z,14.10
2023-04-08T09:11:43.288Z,8.10
2023-04-08T09:14:26.615Z,7.35
2023-04-08T09:16:54.227Z,11.05
2023-04-08T09:19:21.115Z,14.63
2023-04-08T09:22:06.449Z,14.43
2023-04-08T09:24:33.705Z,9.65
2023-04-08T09:27:00.984Z,10.80
2023-04-08T09:29:31.257Z,11.30
2023-04-08T09:32:02.128Z,16.70
2023-04-08T09:34:30.968Z,19.23
2023-04-08T09:36:58.139Z,15.38
2023-04-08T09:39:25.134Z,19.33
2023-04-08T09:41:53.272Z,23.30
2023-04-08T09:44:22.067Z,14.50
2023-04-08T09:46:54.908Z,13.38
2023-04-08T09:49:28.096Z,15.30
2023-04-08T09:52:07.720Z,12.25
2023-04-08T09:54:49.398Z,14.80
2023-04-08T09:57:29.293Z,18.52
2023-04-08T10:00:05.701Z,15.43
2023-04-08T10:02:59.584Z,11.27
2023-04-08T10:05:27.434Z,11.50
2023-04-08T10:07:57.444Z,11.73
2023-04-08T10:10:24.690Z,9.00
2023-04-08T10:12:52.506Z,12.73
2023-04-08T10:15:30.514Z,9.63
2023-04-08T10:18:20.667Z,10.30
2023-04-08T10:20:49.405Z,11.60
2023-04-08T10:23:18.464Z,14.18
2023-04-08T10:25:48.015Z,8.48
2023-04-08T10:28:15.609Z,6.55
2023-04-08T10:30:52.113Z,10.57
2023-04-08T10:33:23.095Z,9.70
2023-04-08T10:36:00.558Z,16.10
2023-04-08T10:38:27.846Z,17.52
2023-04-08T10:40:55.102Z,12.48
2023-04-08T10:43:22.123Z,22.05
2023-04-08T10:45:51.560Z,12.07
2023-04-08T10:48:25.006Z,11.90
2023-04-08T10:51:05.142Z,27.98
2023-04-08T10:53:33.837Z,20.00
2023-04-08T10:56:08.082Z,26.33
2023-04-08T10:58:52.143Z,22.48
2023-04-08T11:01:19.969Z,26.48
2023-04-08T11:03:47.650Z,24.77
2023-04-08T11:06:15.744Z,22.42
2023-04-08T11:08:44.575Z,29.02
2023-04-08T11:11:12.191Z,23.98
2023-04-08T11:13:51.563Z,20.02
2023-04-08T11:16:21.398Z,27.98
2023-04-08T11:18:49.636Z,18.60
2023-04-08T11:21:17.517Z,31.73
2023-04-08T11:23:44.991Z,28.08
2023-04-08T11:26:11.886Z,24.63
2023-04-08T11:28:38.901Z,20.38
2023-04-08T11:31:06.524Z,18.85
2023-04-08T11:33:35.517Z,34.53
2023-04-08T11:38:32.302Z,13.75
2023-04-08T11:41:00.184Z,15.13
2023-04-08T11:43:29.151Z,18.15
2023-04-08T11:45:56.089Z,16.58
2023-04-08T11:48:23.878Z,15.93
2023-04-08T11:51:04.247Z,20.02
2023-04-08T11:53:31.644Z,15.70
2023-04-08T11:55:58.564Z,16.58
2023-04-08T11:58:25.920Z,14.48
2023-04-08T12:00:52.830Z,15.55
2023-04-08T12:03:19.792Z,13.00
2023-04-08T12:05:46.940Z,10.30
2023-04-08T12:08:13.833Z,8.45
2023-04-08T12:10:41.211Z,11.98
2023-04-08T12:13:08.585Z,16.02
2023-04-08T12:15:35.476Z,17.05
2023-04-08T12:18:02.327Z,13.93
2023-04-08T12:20:29.296Z,15.43
2023-04-08T12:22:56.186Z,15.07
2023-04-08T12:25:23.036Z,11.60
2023-04-08T12:27:49.944Z,17.35
2023-04-08T12:30:17.713Z,13.48
2023-04-08T12:32:46.153Z,18.30
2023-04-08T12:35:13.549Z,15.00
2023-04-08T12:37:40.512Z,14.07
2023-04-08T12:40:08.528Z,14.25
2023-04-08T12:42:35.747Z,14.85
2023-04-08T12:45:02.764Z,17.27
2023-04-08T12:47:29.708Z,15.30
2023-04-08T12:49:56.759Z,17.23
2023-04-08T12:52:24.183Z,13.18
2023-04-08T12:54:51.045Z,18.83
2023-04-08T12:57:18.043Z,12.68
2023-04-08T12:59:44.869Z,13.45
2023-04-08T13:02:11.786Z,14.18
2023-04-08T13:04:38.910Z,12.93
2023-04-08T13:07:07.605Z,18.50
2023-04-08T13:09:34.433Z,14.32
2023-04-08T13:12:01.223Z,10.85
2023-04-08T13:14:28.754Z,13.38
2023-04-08T13:16:55.688Z,15.88
2023-04-08T13:19:22.552Z,9.93
2023-04-08T13:21:49.303Z,9.43
2023-04-08T13:24:16.212Z,11.38
2023-04-08T13:26:43.132Z,10.13
2023-04-08T13:29:09.905Z,11.80
2023-04-08T13:31:36.781Z,11.68
2023-04-08T13:34:04.282Z,12.55
2023-04-08T13:36:31.535Z,12.90
2023-04-08T13:38:58.552Z,13.27
2023-04-08T13:41:26.285Z,11.50
2023-04-08T13:43:53.756Z,13.80
2023-04-08T13:46:21.704Z,8.45
2023-04-08T13:48:48.661Z,7.82
2023-04-08T13:51:15.496Z,9.18
2023-04-08T13:53:42.345Z,10.32
2023-04-08T13:56:09.342Z,9.20
2023-04-08T13:58:36.232Z,8.18
2023-04-08T14:01:03.687Z,7.45
2023-04-08T14:03:30.548Z,8.65
2023-04-08T14:06:01.082Z,8.60
2023-04-08T14:08:28.620Z,10.07
2023-04-08T14:10:58.546Z,10.27
2023-04-08T14:13:25.603Z,8.38
2023-04-08T14:15:55.150Z,11.95
2023-04-08T14:18:22.163Z,12.95
2023-04-08T14:20:50.130Z,13.15
2023-04-08T14:23:17.157Z,9.52
2023-04-08T14:25:44.807Z,33.25
2023-04-08T14:28:12.480Z,13.05
2023-04-08T14:30:39.528Z,24.70
2023-04-08T14:33:06.670Z,11.75
2023-04-08T14:35:34.068Z,9.77
2023-04-08T14:38:01.515Z,10.82
2023-04-08T14:40:28.398Z,9.55
2023-04-08T14:42:55.252Z,10.10
2023-04-08T14:45:22.061Z,15.38
2023-04-08T14:47:48.903Z,11.90
2023-04-08T14:50:16.835Z,12.15
2023-04-08T14:52:45.504Z,11.43
2023-04-08T14:55:12.712Z,9.48
2023-04-08T14:57:39.753Z,15.30
2023-04-08T15:00:07.717Z,18.88
2023-04-08T15:02:34.814Z,11.85
2023-04-08T15:05:01.682Z,11.48
2023-04-08T15:07:28.766Z,11.57
2023-04-08T15:09:56.648Z,13.15
2023-04-08T15:12:24.589Z,13.60
2023-04-08T15:14:51.357Z,13.93
2023-04-08T15:17:18.344Z,13.60
2023-04-08T15:19:45.232Z,12.48
2023-04-08T15:22:13.185Z,12.98
2023-04-08T15:24:40.211Z,15.75
2023-04-08T15:27:07.381Z,8.75
2023-04-08T15:29:34.263Z,13.88
2023-04-08T15:32:01.446Z,10.48
2023-04-08T15:34:28.807Z,11.98
2023-04-08T15:36:58.775Z,10.95
2023-04-08T15:39:25.978Z,8.23
2023-04-08T15:41:53.159Z,11.48
2023-04-08T15:44:19.964Z,14.57
2023-04-08T15:46:46.974Z,19.33
2023-04-08T15:49:13.865Z,20.52
2023-04-08T15:51:44.415Z,19.08
2023-04-08T15:54:11.650Z,23.33
2023-04-08T15:56:38.565Z,18.95
2023-04-08T15:59:05.741Z,22.73
2023-04-08T16:01:33.404Z,16.80
2023-04-08T16:04:01.272Z,23.63
2023-04-08T16:06:28.280Z,24.17
2023-04-08T16:08:55.492Z,28.77
2023-04-08T16:11:22.629Z,29.20
2023-04-08T16:13:49.698Z,29.33
2023-04-08T16:16:16.601Z,25.30
2023-04-08T16:18:45.441Z,33.47
2023-04-08T16:21:13.691Z,30.17
2023-04-08T16:23:41.448Z,29.60
2023-04-08T16:26:08.620Z,24.35
2023-04-08T16:28:37.095Z,33.03
2023-04-08T16:31:04.618Z,29.20
2023-04-08T16:33:32.080Z,22.85
2023-04-08T16:36:00.520Z,28.48
2023-04-08T16:38:27.995Z,36.03
2023-04-08T16:40:58.725Z,22.55
2023-04-08T16:43:26.066Z,22.17
2023-04-08T16:45:53.403Z,21.40
2023-04-08T16:48:20.264Z,21.23
2023-04-08T16:50:47.052Z,22.20
2023-04-08T16:53:13.890Z,25.23
2023-04-08T16:55:40.915Z,19.58
2023-04-08T16:58:07.962Z,16.15
2023-04-08T17:00:35.064Z,21.40
2023-04-08T17:03:02.496Z,19.40
2023-04-08T17:05:30.346Z,20.30
2023-04-08T17:07:57.750Z,23.88
2023-04-08T17:10:25.096Z,18.25
2023-04-08T17:12:52.065Z,28.30
2023-04-08T17:15:18.843Z,21.05
2023-04-08T17:17:46.641Z,23.23
2023-04-08T17:20:13.607Z,18.45
2023-04-08T17:22:40.469Z,17.00
2023-04-08T17:25:08.105Z,19.77
2023-04-08T17:27:35.465Z,14.23
2023-04-08T17:30:02.741Z,14.13
2023-04-08T17:32:29.698Z,21.88
2023-04-08T17:34:57.072Z,17.05
2023-04-08T17:37:23.868Z,18.58
2023-04-08T17:39:51.673Z,13.73
2023-04-08T17:42:22.484Z,19.15
2023-04-08T17:44:49.500Z,19.27
2023-04-08T17:47:16.369Z,20.77
2023-04-08T17:49:43.409Z,18.40
2023-04-08T17:52:10.314Z,15.80
2023-04-08T17:54:37.129Z,22.00
2023-04-08T17:57:04.134Z,13.00
2023-04-08T17:59:31.073Z,13.50
2023-04-08T18:01:58.035Z,18.67
2023-04-08T18:04:24.978Z,36.28
2023-04-08T18:06:51.890Z,26.23
2023-04-08T18:09:18.664Z,21.25
2023-04-08T18:11:45.818Z,21.40
2023-04-08T18:14:12.656Z,32.70
2023-04-08T18:16:39.527Z,22.83
2023-04-08T18:19:06.640Z,32.53
2023-04-08T18:21:33.734Z,33.03
2023-04-08T18:24:01.126Z,33.28
2023-04-08T18:26:28.510Z,30.60
2023-04-08T18:28:55.444Z,20.65
2023-04-08T18:31:22.390Z,25.92
2023-04-08T18:33:50.129Z,31.48
2023-04-08T18:36:17.623Z,24.52
2023-04-08T18:38:44.786Z,21.88
2023-04-08T18:41:13.204Z,25.85
2023-04-08T18:43:40.233Z,19.00
2023-04-08T18:46:07.234Z,16.92
2023-04-08T18:48:34.014Z,18.58
2023-04-08T18:51:04.299Z,20.25
2023-04-08T18:53:31.467Z,22.45
2023-04-08T18:55:58.556Z,20.00
2023-04-08T18:58:25.640Z,19.92
2023-04-08T19:00:52.613Z,19.30
2023-04-08T19:03:19.474Z,20.30
2023-04-08T19:05:46.748Z,22.15
2023-04-08T19:08:13.836Z,19.42
2023-04-08T19:10:40.936Z,19.65
2023-04-08T19:13:07.673Z,22.40
2023-04-08T19:15:34.474Z,20.20
2023-04-08T19:18:01.333Z,20.75
2023-04-08T19:20:28.498Z,27.52
2023-04-08T19:22:55.946Z,20.90
2023-04-08T19:25:22.798Z,21.92
2023-04-08T19:27:49.882Z,24.42
2023-04-08T19:30:16.737Z,21.15
2023-04-08T19:32:43.809Z,25.08
2023-04-08T19:35:13.772Z,18.88
2023-04-08T19:37:41.202Z,24.33
2023-04-08T19:40:08.926Z,22.67
2023-04-08T19:42:36.487Z,20.17
2023-04-08T19:45:03.845Z,22.42
2023-04-08T19:47:30.962Z,23.52
2023-04-08T19:49:58.289Z,15.48
2023-04-08T19:52:25.733Z,26.27
2023-04-08T19:54:53.114Z,19.00
2023-04-08T19:57:20.685Z,19.67
2023-04-08T19:59:50.327Z,16.92
2023-04-08T20:02:17.284Z,22.23
2023-04-08T20:04:45.830Z,20.65
2023-04-08T20:07:13.351Z,15.32
2023-04-08T20:09:40.494Z,16.15
2023-04-08T20:12:07.561Z,16.35
2023-04-08T20:14:36.509Z,15.95
2023-04-08T20:17:04.446Z,15.88
2023-04-08T20:19:32.046Z,14.13
2023-04-08T20:21:58.965Z,13.73
2023-04-08T20:24:26.319Z,13.60
2023-04-08T20:26:53.500Z,16.50
2023-04-08T20:29:20.691Z,17.30
2023-04-08T20:31:47.996Z,15.18
2023-04-08T20:34:14.941Z,17.65
2023-04-08T20:36:42.350Z,12.98
2023-04-08T20:39:12.970Z,19.85
2023-04-08T20:41:39.787Z,15.43
2023-04-08T20:44:08.520Z,14.38
2023-04-08T20:46:35.540Z,14.60
2023-04-08T20:49:03.827Z,11.50
2023-04-08T20:51:33.632Z,13.45
2023-04-08T20:54:00.789Z,12.65
2023-04-08T20:56:27.923Z,13.55
2023-04-08T20:58:55.622Z,15.63
2023-04-08T21:01:24.171Z,11.57
2023-04-08T21:03:51.290Z,14.38
2023-04-08T21:06:19.380Z,13.00
2023-04-08T21:08:47.169Z,14.60
2023-04-08T21:11:14.392Z,12.30
2023-04-08T21:13:41.521Z,12.35
2023-04-08T21:16:08.772Z,11.63
2023-04-08T21:18:38.520Z,12.23
2023-04-08T21:21:05.559Z,13.25
2023-04-08T21:23:32.443Z,11.55
2023-04-08T21:26:00.411Z,12.25
2023-04-08T21:28:28.970Z,11.85
2023-04-08T21:30:55.878Z,12.55
2023-04-08T21:33:23.079Z,13.40
2023-04-08T21:35:50.117Z,14.32
2023-04-08T21:38:17.091Z,13.13
2023-04-08T21:40:43.934Z,10.35
2023-04-08T21:43:10.784Z,12.10
2023-04-08T21:45:37.615Z,11.90
2023-04-08T21:48:05.054Z,14.32
2023-04-08T21:50:32.464Z,10.05
2023-04-08T21:52:59.296Z,13.20
2023-04-08T21:55:26.229Z,13.73
2023-04-08T21:57:53.031Z,11.25
2023-04-08T22:00:19.925Z,11.55
2023-04-08T22:02:46.809Z,11.05
2023-04-08T22:05:13.856Z,13.25
2023-04-08T22:07:40.767Z,14.30
2023-04-08T22:10:08.169Z,10.48
2023-04-08T22:12:34.943Z,10.98
2023-04-08T22:15:01.723Z,11.05
2023-04-08T22:17:28.532Z,11.68
2023-04-08T22:19:55.605Z,11.07
2023-04-08T22:22:36.464Z,11.02
2023-04-08T22:25:03.234Z,11.75
2023-04-08T22:27:29.986Z,11.80
2023-04-08T22:29:56.745Z,11.20
2023-04-08T22:32:23.536Z,11.70
2023-04-08T22:34:50.710Z,11.70
2023-04-08T22:37:17.742Z,12.25
2023-04-08T22:39:44.460Z,10.57
2023-04-08T22:42:11.272Z,12.00
2023-04-08T22:44:38.004Z,12.98
2023-04-08T22:47:04.741Z,11.40
2023-04-08T22:49:31.487Z,11.07
2023-04-08T22:51:58.232Z,12.10
2023-04-08T22:54:25.035Z,12.10
2023-04-08T22:56:51.749Z,10.77
2023-04-08T22:59:18.448Z,13.50
2023-04-08T23:01:46.428Z,11.05
2023-04-08T23:04:13.302Z,12.15
2023-04-08T23:06:40.325Z,11.45
2023-04-08T23:09:07.032Z,12.90
2023-04-08T23:11:33.994Z,12.00
2023-04-08T23:14:01.011Z,11.10
2023-04-08T23:16:27.786Z,11.95
2023-04-08T23:18:54.686Z,13.50
2023-04-08T23:21:21.600Z,10.68
2023-04-08T23:23:48.830Z,13.60
2023-04-08T23:26:21.751Z,11.07
2023-04-08T23:28:48.546Z,10.10
2023-04-08T23:31:15.428Z,13.30
2023-04-08T23:33:42.301Z,11.18
2023-04-08T23:36:09.779Z,11.40
2023-04-08T23:38:39.832Z,12.25
2023-04-08T23:41:07.301Z,9.90
2023-04-08T23:43:34.275Z,13.13
2023-04-08T23:46:00.998Z,10.32
2023-04-08T23:48:27.823Z,13.93
2023-04-08T23:50:55.256Z,12.63
2023-04-08T23:53:22.207Z,12.82
2023-04-08T23:55:49.001Z,13.63
2023-04-08T23:58:15.747Z,11.43
